Time;durP1;ratioP1;P1;durP2;ratioP2;P2;SDS_P1;SDS_P2;PMS_P1;PMS_P2;Temp;Humidity;BMP_temperature;BMP_pressure;BME280_temperature;BME280_humidity;BME280_pressure;Samples;Min_cycle;Max_cycle;Signal;HPM_P1;HPM_P2
2023/05/30 00:02:14;;;;;;;;;;;16.50;99.90;;;;;;5042963;28;19931;-66
2023/05/30 00:04:42;;;;;;;;;;;16.40;99.90;;;;;;5041352;28;20173;-67
2023/05/30 00:07:10;;;;;;;;;;;16.40;99.90;;;;;;5043024;28;19933;-67
2023/05/30 00:09:36;;;;;;;;;;;16.30;99.90;;;;;;5043978;28;19921;-66
2023/05/30 00:12:03;;;;;;;;;;;16.20;99.90;;;;;;5043894;28;19929;-67
2023/05/30 00:14:30;;;;;;;;;;;16.20;99.90;;;;;;5043433;28;19925;-66
2023/05/30 00:16:58;;;;;;;;;;;16.10;99.90;;;;;;5043315;28;20029;-67
2023/05/30 00:19:26;;;;;;;;;;;16.10;99.90;;;;;;5043766;28;19959;-67
2023/05/30 00:21:54;;;;;;;;;;;16.10;99.90;;;;;;5043890;28;19987;-67
2023/05/30 00:24:22;;;;;;;;;;;16.10;99.90;;;;;;5043386;28;19967;-67
2023/05/30 00:26:49;;;;;;;;;;;16.10;99.90;;;;;;5042815;28;19921;-67
2023/05/30 00:29:16;;;;;;;;;;;16.00;99.90;;;;;;5043214;28;19921;-66
2023/05/30 00:31:43;;;;;;;;;;;16.00;99.90;;;;;;5043266;28;19986;-66
2023/05/30 00:34:09;;;;;;;;;;;16.00;99.90;;;;;;5043527;28;19921;-66
2023/05/30 00:36:37;;;;;;;;;;;15.90;99.90;;;;;;5043415;28;19960;-66
2023/05/30 00:39:04;;;;;;;;;;;15.80;99.90;;;;;;5043337;28;20173;-66
2023/05/30 00:41:31;;;;;;;;;;;15.80;99.90;;;;;;5043320;28;20093;-67
2023/05/30 00:43:57;;;;;;;;;;;15.80;99.90;;;;;;5043315;28;19925;-66
2023/05/30 00:46:29;;;;;;;;;;;15.80;99.90;;;;;;5042818;28;20168;-66
2023/05/30 00:48:56;;;;;;;;;;;15.70;99.90;;;;;;5045293;28;19921;-66
2023/05/30 00:51:23;;;;;;;;;;;15.70;99.90;;;;;;5047647;28;20157;-67
2023/05/30 00:53:51;;;;;;;;;;;15.70;99.90;;;;;;5047251;28;19921;-67
2023/05/30 00:56:18;;;;;;;;;;;15.70;99.90;;;;;;5047201;28;19956;-66
2023/05/30 00:58:45;;;;;;;;;;;15.60;99.90;;;;;;5047599;28;19927;-66
2023/05/30 01:01:12;;;;;;;;;;;15.60;99.90;;;;;;5047137;28;19925;-67
2023/05/30 01:03:39;;;;;;;;;;;15.50;99.90;;;;;;5047404;28;19952;-67
2023/05/30 01:06:06;;;;;;;;;;;15.50;99.90;;;;;;5046602;28;19921;-67
2023/05/30 01:08:34;;;;;;;;;;;15.50;99.90;;;;;;5046930;28;19953;-67
2023/05/30 01:11:09;;;;;;;;;;;15.50;99.90;;;;;;5045092;28;19921;-67
2023/05/30 01:13:39;;;;;;;;;;;15.50;99.90;;;;;;5047410;28;19921;-66
2023/05/30 01:16:08;;;;;;;;;;;15.40;99.90;;;;;;5047077;28;19996;-67
2023/05/30 01:18:37;;;;;;;;;;;15.40;99.90;;;;;;5047125;28;19922;-67
2023/05/30 01:21:07;;;;;;;;;;;15.40;99.90;;;;;;5047129;28;19921;-66
2023/05/30 01:23:43;;;;;;;;;;;15.30;99.90;;;;;;5047124;28;19928;-67
2023/05/30 01:26:22;;;;;;;;;;;15.40;99.90;;;;;;5046652;28;19921;-67
2023/05/30 01:28:51;;;;;;;;;;;15.30;99.90;;;;;;5046625;28;20204;-67
2023/05/30 01:31:19;;;;;;;;;;;15.30;99.90;;;;;;5046695;28;19924;-67
2023/05/30 01:33:46;;;;;;;;;;;15.20;99.90;;;;;;5046698;28;19927;-67
2023/05/30 01:36:14;;;;;;;;;;;15.30;99.90;;;;;;5044427;28;20118;-66
2023/05/30 01:38:41;;;;;;;;;;;15.20;99.90;;;;;;5046666;28;19921;-67
2023/05/30 01:41:12;;;;;;;;;;;15.20;99.90;;;;;;5046805;28;20172;-67
2023/05/30 01:43:40;;;;;;;;;;;15.10;99.90;;;;;;5046574;28;19943;-67
2023/05/30 01:46:14;;;;;;;;;;;15.10;99.90;;;;;;5046077;28;19967;-67
2023/05/30 01:48:47;;;;;;;;;;;15.00;99.90;;;;;;5046667;28;19925;-66
2023/05/30 01:51:16;;;;;;;;;;;15.00;99.90;;;;;;5046714;28;19988;-66
2023/05/30 01:53:47;;;;;;;;;;;15.00;99.90;;;;;;5046098;28;19928;-67
2023/05/30 01:56:15;;;;;;;;;;;15.00;99.90;;;;;;5045832;28;19921;-67
2023/05/30 01:58:42;;;;;;;;;;;15.00;99.90;;;;;;5045842;28;19921;-67
2023/05/30 02:01:10;;;;;;;;;;;14.90;99.90;;;;;;5045986;28;19952;-67
2023/05/30 02:03:36;;;;;;;;;;;14.90;99.90;;;;;;5046051;28;19921;-67
2023/05/30 02:06:03;;;;;;;;;;;14.90;99.90;;;;;;5045633;28;20224;-67
2023/05/30 02:08:30;;;;;;;;;;;14.90;99.90;;;;;;5046043;28;19927;-66
2023/05/30 02:10:56;;;;;;;;;;;14.90;99.90;;;;;;5045946;28;19996;-67
2023/05/30 02:13:23;;;;;;;;;;;14.80;99.90;;;;;;5046137;28;19987;-67
2023/05/30 02:15:49;;;;;;;;;;;14.80;99.90;;;;;;5045569;28;19988;-67
2023/05/30 02:18:19;;;;;;;;;;;14.80;99.90;;;;;;5045676;28;19989;-67
2023/05/30 02:20:46;;;;;;;;;;;14.70;99.90;;;;;;5045965;28;20276;-67
2023/05/30 02:23:12;;;;;;;;;;;14.70;99.90;;;;;;5045775;28;20000;-66
2023/05/30 02:25:39;;;;;;;;;;;14.60;99.90;;;;;;5045386;28;19944;-67
2023/05/30 02:28:06;;;;;;;;;;;14.60;99.90;;;;;;5045743;28;19921;-67
2023/05/30 02:30:32;;;;;;;;;;;14.60;99.90;;;;;;5045353;28;20242;-67
2023/05/30 02:32:59;;;;;;;;;;;14.60;99.90;;;;;;5045540;28;19996;-67
2023/05/30 02:35:27;;;;;;;;;;;14.60;99.90;;;;;;5045245;28;19956;-67
2023/05/30 02:37:54;;;;;;;;;;;14.50;99.90;;;;;;5044855;28;19928;-67
2023/05/30 02:40:20;;;;;;;;;;;14.50;99.90;;;;;;5045685;28;19992;-67
2023/05/30 02:42:47;;;;;;;;;;;14.50;99.90;;;;;;5045414;28;19996;-67
2023/05/30 02:45:14;;;;;;;;;;;14.40;99.90;;;;;;5044935;28;20205;-67
2023/05/30 02:47:40;;;;;;;;;;;14.40;99.90;;;;;;5044877;28;19921;-67
2023/05/30 02:50:07;;;;;;;;;;;14.40;99.90;;;;;;5045069;28;19988;-67
2023/05/30 02:52:36;;;;;;;;;;;14.40;99.90;;;;;;5045450;28;19928;-67
2023/05/30 02:55:02;;;;;;;;;;;14.30;99.90;;;;;;5044877;28;19960;-67
2023/05/30 02:57:29;;;;;;;;;;;14.30;99.90;;;;;;5044891;28;19989;-67
2023/05/30 02:59:56;;;;;;;;;;;14.30;99.90;;;;;;5045047;28;19921;-67
2023/05/30 03:02:22;;;;;;;;;;;14.20;99.90;;;;;;5044737;28;19921;-67
2023/05/30 03:04:49;;;;;;;;;;;14.20;99.90;;;;;;5045141;28;19960;-66
2023/05/30 03:07:17;;;;;;;;;;;14.20;99.90;;;;;;5044563;28;19925;-67
2023/05/30 03:09:45;;;;;;;;;;;14.20;99.90;;;;;;5044696;28;20008;-67
2023/05/30 03:12:12;;;;;;;;;;;14.20;99.90;;;;;;5044569;28;19927;-67
2023/05/30 03:14:38;;;;;;;;;;;14.20;99.90;;;;;;5044702;28;19992;-67
2023/05/30 03:17:06;;;;;;;;;;;14.20;99.90;;;;;;5044507;28;19959;-67
2023/05/30 03:19:33;;;;;;;;;;;14.20;99.90;;;;;;5044872;28;19921;-67
2023/05/30 03:22:00;;;;;;;;;;;14.10;99.90;;;;;;5044770;28;19996;-67
2023/05/30 03:24:26;;;;;;;;;;;14.10;99.90;;;;;;5044466;28;19921;-67
2023/05/30 03:26:54;;;;;;;;;;;14.10;99.90;;;;;;5043956;28;20228;-67
2023/05/30 03:29:21;;;;;;;;;;;14.10;99.90;;;;;;5044748;28;19921;-67
2023/05/30 03:31:48;;;;;;;;;;;14.10;99.90;;;;;;5044531;28;19952;-67
2023/05/30 03:34:14;;;;;;;;;;;14.00;99.90;;;;;;5044464;28;19927;-67
2023/05/30 03:36:41;;;;;;;;;;;14.10;99.90;;;;;;5043504;28;19921;-67
2023/05/30 03:39:07;;;;;;;;;;;14.10;99.90;;;;;;5044438;28;19929;-66
2023/05/30 03:41:34;;;;;;;;;;;14.10;99.90;;;;;;5044436;28;19988;-67
2023/05/30 03:44:02;;;;;;;;;;;14.10;99.90;;;;;;5044246;28;20185;-67
2023/05/30 03:46:29;;;;;;;;;;;14.10;99.90;;;;;;5043363;28;19927;-66
2023/05/30 03:48:55;;;;;;;;;;;14.10;99.90;;;;;;5044240;28;19975;-67
2023/05/30 03:51:22;;;;;;;;;;;14.10;99.90;;;;;;5044199;28;19955;-67
2023/05/30 03:53:49;;;;;;;;;;;14.10;99.90;;;;;;5043801;28;19988;-67
2023/05/30 03:56:15;;;;;;;;;;;14.10;99.90;;;;;;5043976;28;19963;-66
2023/05/30 03:58:42;;;;;;;;;;;14.10;99.90;;;;;;5044042;28;19991;-67
2023/05/30 04:01:10;;;;;;;;;;;14.10;99.90;;;;;;5043668;28;19993;-67
2023/05/30 04:03:38;;;;;;;;;;;14.00;99.90;;;;;;5043687;28;20201;-67
2023/05/30 04:06:05;;;;;;;;;;;14.00;99.90;;;;;;5043366;28;19928;-67
2023/05/30 04:08:32;;;;;;;;;;;14.00;99.90;;;;;;5043370;28;20117;-67
2023/05/30 04:10:59;;;;;;;;;;;14.00;99.90;;;;;;5044057;28;19947;-67
2023/05/30 04:13:25;;;;;;;;;;;14.10;99.90;;;;;;5043685;28;19928;-67
2023/05/30 04:15:52;;;;;;;;;;;14.00;99.90;;;;;;5043491;28;20157;-67
2023/05/30 04:18:20;;;;;;;;;;;14.10;99.90;;;;;;5043561;28;19956;-67
2023/05/30 04:20:47;;;;;;;;;;;14.00;99.90;;;;;;5043785;28;19957;-67
2023/05/30 04:23:13;;;;;;;;;;;14.00;99.90;;;;;;5042890;28;19980;-67
2023/05/30 04:25:40;;;;;;;;;;;14.00;99.90;;;;;;5043012;28;20264;-67
2023/05/30 04:28:06;;;;;;;;;;;14.00;99.90;;;;;;5043496;28;19921;-67
2023/05/30 04:30:34;;;;;;;;;;;14.00;99.90;;;;;;5043291;28;20231;-67
2023/05/30 04:33:00;;;;;;;;;;;13.90;99.90;;;;;;5043042;28;19921;-67
2023/05/30 04:35:28;;;;;;;;;;;13.90;99.90;;;;;;5042860;28;19964;-66
2023/05/30 04:37:55;;;;;;;;;;;13.90;99.90;;;;;;5042722;28;19953;-66
2023/05/30 04:40:22;;;;;;;;;;;14.00;99.90;;;;;;5043677;28;19921;-67
2023/05/30 04:42:51;;;;;;;;;;;14.00;99.90;;;;;;5043062;28;19921;-68
2023/05/30 04:45:18;;;;;;;;;;;14.00;99.90;;;;;;5042856;28;19960;-68
2023/05/30 04:47:47;;;;;;;;;;;13.90;99.90;;;;;;5042882;28;19921;-67
2023/05/30 04:50:15;;;;;;;;;;;14.00;99.90;;;;;;5043344;28;19921;-67
2023/05/30 04:52:43;;;;;;;;;;;14.00;99.90;;;;;;5043332;28;19984;-67
2023/05/30 04:55:10;;;;;;;;;;;14.00;99.90;;;;;;5043316;28;19921;-67
2023/05/30 04:57:37;;;;;;;;;;;14.00;99.90;;;;;;5042684;28;20209;-67
2023/05/30 05:00:09;;;;;;;;;;;14.10;99.90;;;;;;5040981;28;19927;-67
2023/05/30 05:02:38;;;;;;;;;;;14.10;99.90;;;;;;5042830;28;19983;-67
2023/05/30 05:05:05;;;;;;;;;;;14.10;99.90;;;;;;5043187;28;19984;-67
2023/05/30 05:07:32;;;;;;;;;;;14.10;99.90;;;;;;5042444;28;20132;-67
2023/05/30 05:10:00;;;;;;;;;;;14.20;99.90;;;;;;5042993;28;19929;-66
2023/05/30 05:12:29;;;;;;;;;;;14.30;99.90;;;;;;5043251;28;19952;-66
2023/05/30 05:14:57;;;;;;;;;;;14.30;99.90;;;;;;5042564;28;19921;-66
2023/05/30 05:17:23;;;;;;;;;;;14.40;99.90;;;;;;5042456;28;19999;-66
2023/05/30 05:19:52;;;;;;;;;;;14.40;99.90;;;;;;5042659;28;19980;-68
2023/05/30 05:22:19;;;;;;;;;;;14.50;99.90;;;;;;5042923;28;19957;-66
2023/05/30 05:24:46;;;;;;;;;;;14.60;99.90;;;;;;5042546;28;20094;-66
2023/05/30 05:27:14;;;;;;;;;;;14.60;99.90;;;;;;5042910;28;19964;-67
2023/05/30 05:29:41;;;;;;;;;;;14.70;99.90;;;;;;5042774;28;19956;-66
2023/05/30 05:32:08;;;;;;;;;;;14.70;99.90;;;;;;5042211;28;19921;-66
2023/05/30 05:34:35;;;;;;;;;;;14.70;99.90;;;;;;5044077;28;19921;-66
2023/05/30 05:37:01;;;;;;;;;;;14.70;99.90;;;;;;5046128;28;19984;-66
2023/05/30 05:39:28;;;;;;;;;;;14.70;99.90;;;;;;5046662;28;19937;-66
2023/05/30 05:41:54;;;;;;;;;;;14.70;99.90;;;;;;5046307;28;19956;-66
2023/05/30 05:44:22;;;;;;;;;;;14.70;99.90;;;;;;5046154;28;19967;-66
2023/05/30 05:46:49;;;;;;;;;;;14.80;99.90;;;;;;5045438;28;19988;-65
2023/05/30 05:49:15;;;;;;;;;;;14.80;99.90;;;;;;5045908;28;19994;-66
2023/05/30 05:51:42;;;;;;;;;;;14.90;99.90;;;;;;5045924;28;19988;-66
2023/05/30 05:54:09;;;;;;;;;;;15.00;99.90;;;;;;5046326;28;19988;-67
2023/05/30 05:56:36;;;;;;;;;;;15.00;99.90;;;;;;5045558;28;20250;-66
2023/05/30 05:59:04;;;;;;;;;;;15.10;99.90;;;;;;5044980;28;19967;-66
2023/05/30 06:01:32;;;;;;;;;;;15.20;99.90;;;;;;5045652;28;19925;-66
2023/05/30 06:04:01;;;;;;;;;;;15.30;99.90;;;;;;5045928;28;19928;-65
2023/05/30 06:06:28;;;;;;;;;;;15.30;99.90;;;;;;5045602;28;19921;-66
2023/05/30 06:08:54;;;;;;;;;;;15.40;99.90;;;;;;5046063;28;20004;-65
2023/05/30 06:11:21;;;;;;;;;;;15.40;99.90;;;;;;5045601;28;19952;-66
2023/05/30 06:13:48;;;;;;;;;;;15.50;99.90;;;;;;5045854;28;19921;-66
2023/05/30 06:16:14;;;;;;;;;;;15.40;99.90;;;;;;5045145;28;20299;-67
2023/05/30 06:18:42;;;;;;;;;;;15.50;99.90;;;;;;5045817;28;19925;-66
2023/05/30 06:21:10;;;;;;;;;;;15.50;99.90;;;;;;5043015;28;19927;-65
2023/05/30 06:23:37;;;;;;;;;;;15.50;99.90;;;;;;5045430;28;19922;-65
2023/05/30 06:26:04;;;;;;;;;;;15.60;99.90;;;;;;5045178;28;19928;-65
2023/05/30 06:28:30;;;;;;;;;;;15.60;99.90;;;;;;5045444;28;19984;-65
2023/05/30 06:30:57;;;;;;;;;;;15.60;99.90;;;;;;5037402;28;19927;-65
2023/05/30 06:33:24;;;;;;;;;;;15.60;99.90;;;;;;5034015;28;19921;-64
2023/05/30 06:36:07;;;;;;;;;;;15.70;99.90;;;;;;5045259;28;19963;-66
2023/05/30 06:38:35;;;;;;;;;;;15.70;99.90;;;;;;5029476;28;19960;-65
2023/05/30 06:41:02;;;;;;;;;;;15.70;99.90;;;;;;5044834;28;19985;-65
2023/05/30 06:43:29;;;;;;;;;;;15.70;99.90;;;;;;5045268;28;20204;-65
2023/05/30 06:45:55;;;;;;;;;;;15.70;99.90;;;;;;5043462;28;20213;-65
2023/05/30 06:48:31;;;;;;;;;;;15.70;99.90;;;;;;5044962;28;19952;-65
2023/05/30 06:54:02;;;;;;;;;;;15.80;99.90;;;;;;5043320;28;19916;-65
2023/05/30 06:56:29;;;;;;;;;;;16.00;99.90;;;;;;5043618;28;19928;-65
2023/05/30 06:58:56;;;;;;;;;;;16.00;99.90;;;;;;5044384;28;19921;-64
2023/05/30 07:01:22;;;;;;;;;;;16.00;99.90;;;;;;5044756;28;19921;-65
2023/05/30 07:03:49;;;;;;;;;;;16.10;99.90;;;;;;5044609;28;19940;-68
2023/05/30 07:06:16;;;;;;;;;;;16.20;99.90;;;;;;5041259;28;19929;-67
2023/05/30 07:08:43;;;;;;;;;;;16.30;99.90;;;;;;5044518;28;19920;-65
2023/05/30 07:11:11;;;;;;;;;;;16.30;99.90;;;;;;5044968;28;19921;-65
2023/05/30 07:13:37;;;;;;;;;;;16.30;99.90;;;;;;5044878;28;19984;-66
2023/05/30 07:16:05;;;;;;;;;;;16.40;99.90;;;;;;5043738;28;19996;-67
2023/05/30 07:18:32;;;;;;;;;;;16.40;99.90;;;;;;5044551;28;19960;-66
2023/05/30 07:20:58;;;;;;;;;;;16.40;99.90;;;;;;5044824;28;19948;-66
2023/05/30 07:23:26;;;;;;;;;;;16.50;99.90;;;;;;5041299;28;19929;-67
2023/05/30 07:25:53;;;;;;;;;;;16.60;99.90;;;;;;5044108;28;19959;-68
2023/05/30 07:28:22;;;;;;;;;;;16.70;99.90;;;;;;5044448;28;20161;-66
2023/05/30 07:30:49;;;;;;;;;;;16.70;99.90;;;;;;5044087;28;19921;-67
2023/05/30 07:33:15;;;;;;;;;;;16.80;99.90;;;;;;5044239;28;19961;-66
2023/05/30 07:35:42;;;;;;;;;;;16.90;99.90;;;;;;5044219;28;19984;-67
2023/05/30 07:38:09;;;;;;;;;;;17.00;99.90;;;;;;5042217;28;20277;-66
2023/05/30 07:40:35;;;;;;;;;;;17.10;99.90;;;;;;5043934;28;19927;-66
2023/05/30 07:43:04;;;;;;;;;;;17.20;99.90;;;;;;5039139;28;20224;-66
2023/05/30 07:45:33;;;;;;;;;;;17.20;99.90;;;;;;5036808;28;19944;-66
2023/05/30 07:47:59;;;;;;;;;;;17.30;99.90;;;;;;5043678;28;19921;-66
2023/05/30 07:50:27;;;;;;;;;;;17.30;99.90;;;;;;5042879;28;20236;-66
2023/05/30 07:52:53;;;;;;;;;;;17.40;99.90;;;;;;5043480;28;19921;-66
2023/05/30 07:55:20;;;;;;;;;;;17.50;99.90;;;;;;5042984;28;19963;-66
2023/05/30 07:57:47;;;;;;;;;;;17.50;99.90;;;;;;5043395;28;19927;-66
2023/05/30 08:00:14;;;;;;;;;;;17.60;99.90;;;;;;5043526;28;19921;-66
2023/05/30 08:02:42;;;;;;;;;;;17.60;99.90;;;;;;5043506;28;20261;-66
2023/05/30 08:05:08;;;;;;;;;;;17.70;99.90;;;;;;5043230;28;19963;-66
2023/05/30 08:07:35;;;;;;;;;;;17.70;99.90;;;;;;5043222;28;19953;-66
2023/05/30 08:10:02;;;;;;;;;;;17.60;99.90;;;;;;5044637;28;19929;-66
2023/05/30 08:12:29;;;;;;;;;;;17.70;99.90;;;;;;5043394;28;19980;-66
2023/05/30 08:14:56;;;;;;;;;;;17.70;99.90;;;;;;5043390;28;19988;-66
2023/05/30 08:17:24;;;;;;;;;;;17.80;99.90;;;;;;5042564;28;20036;-66
2023/05/30 08:19:53;;;;;;;;;;;17.90;99.90;;;;;;5042397;28;19984;-66
2023/05/30 08:22:21;;;;;;;;;;;17.90;99.90;;;;;;5043435;28;20117;-68
2023/05/30 08:24:49;;;;;;;;;;;18.00;99.90;;;;;;5041205;28;19921;-65
2023/05/30 08:27:15;;;;;;;;;;;18.10;99.90;;;;;;5042575;28;19921;-65
2023/05/30 08:29:42;;;;;;;;;;;18.20;99.90;;;;;;5043366;28;20001;-65
2023/05/30 08:32:10;;;;;;;;;;;18.30;99.90;;;;;;5042620;28;19928;-65
2023/05/30 08:34:36;;;;;;;;;;;18.40;99.90;;;;;;5042915;28;19952;-64
2023/05/30 08:37:05;;;;;;;;;;;18.40;99.90;;;;;;5043136;28;19988;-65
2023/05/30 08:39:33;;;;;;;;;;;18.50;99.90;;;;;;5042884;28;19960;-67
2023/05/30 08:41:59;;;;;;;;;;;18.60;99.90;;;;;;5042936;28;19984;-66
2023/05/30 08:44:26;;;;;;;;;;;18.70;99.90;;;;;;5042923;28;19984;-71
2023/05/30 08:46:53;;;;;;;;;;;18.70;99.90;;;;;;5027908;28;19921;-66
2023/05/30 08:49:22;;;;;;;;;;;18.80;99.90;;;;;;5043189;28;19984;-66
2023/05/30 08:51:50;;;;;;;;;;;18.80;99.90;;;;;;5043096;28;19988;-66
2023/05/30 08:54:18;;;;;;;;;;;18.90;99.90;;;;;;5042731;28;19921;-67
2023/05/30 08:56:47;;;;;;;;;;;18.90;99.90;;;;;;5042797;28;19921;-66
2023/05/30 08:59:16;;;;;;;;;;;19.00;99.90;;;;;;5043455;28;19968;-66
2023/05/30 09:01:43;;;;;;;;;;;19.00;99.90;;;;;;5043029;28;19921;-67
2023/05/30 09:04:10;;;;;;;;;;;19.00;99.90;;;;;;5042501;28;19943;-66
2023/05/30 09:06:37;;;;;;;;;;;19.00;99.90;;;;;;5042716;28;19921;-66
2023/05/30 09:09:04;;;;;;;;;;;19.00;99.90;;;;;;5043021;28;20283;-67
2023/05/30 09:11:32;;;;;;;;;;;19.00;99.90;;;;;;5042943;28;19996;-66
2023/05/30 09:13:59;;;;;;;;;;;19.00;99.90;;;;;;5046885;28;20004;-66
2023/05/30 09:16:26;;;;;;;;;;;19.10;99.90;;;;;;5045964;28;19929;-66
2023/05/30 09:18:52;;;;;;;;;;;19.20;99.90;;;;;;5046688;28;19952;-66
2023/05/30 09:21:20;;;;;;;;;;;19.20;99.90;;;;;;5046555;28;20275;-66
2023/05/30 09:29:54;;;;;;;;;;;19.60;99.90;;;;;;5030304;28;19924;-66
2023/05/30 09:32:26;;;;;;;;;;;19.70;99.90;;;;;;5039504;28;19988;-66
2023/05/30 09:34:54;;;;;;;;;;;19.80;99.90;;;;;;5046228;28;19921;-67
2023/05/30 09:40:38;;;;;;;;;;;19.90;99.90;;;;;;4969113;28;19925;-66
2023/05/30 09:43:05;;;;;;;;;;;20.00;99.90;;;;;;4982291;28;19922;-66
2023/05/30 09:45:33;;;;;;;;;;;19.90;99.90;;;;;;5014824;28;20231;-66
2023/05/30 09:48:00;;;;;;;;;;;20.00;99.90;;;;;;5034167;28;19980;-66
2023/05/30 09:50:26;;;;;;;;;;;20.00;99.90;;;;;;5046020;28;19963;-66
2023/05/30 09:52:55;;;;;;;;;;;20.10;99.90;;;;;;5046076;28;19963;-66
2023/05/30 09:55:22;;;;;;;;;;;20.20;99.90;;;;;;5045621;28;19921;-66
2023/05/30 09:57:49;;;;;;;;;;;20.30;99.90;;;;;;5045419;28;19927;-66
2023/05/30 10:00:16;;;;;;;;;;;20.30;99.90;;;;;;5045865;28;19921;-66
2023/05/30 10:02:45;;;;;;;;;;;20.40;99.90;;;;;;5045762;28;19971;-65
2023/05/30 10:05:18;;;;;;;;;;;20.40;99.90;;;;;;5045659;28;19921;-66
2023/05/30 10:07:45;;;;;;;;;;;20.50;99.90;;;;;;5045392;28;19921;-66
2023/05/30 10:10:13;;;;;;;;;;;20.60;99.90;;;;;;5045503;28;20179;-66
2023/05/30 10:12:40;;;;;;;;;;;20.70;99.90;;;;;;5044937;28;20264;-66
2023/05/30 10:15:08;;;;;;;;;;;20.70;99.90;;;;;;5045575;28;19952;-66
2023/05/30 10:17:36;;;;;;;;;;;20.80;99.90;;;;;;5043452;28;19929;-66
2023/05/30 10:20:06;;;;;;;;;;;20.90;99.90;;;;;;5058659;28;19988;-66
2023/05/30 10:22:39;;;;;;;;;;;20.90;99.90;;;;;;5049454;28;20216;-66
2023/05/30 10:25:07;;;;;;;;;;;21.00;99.90;;;;;;5054096;28;19967;-64
2023/05/30 10:27:35;;;;;;;;;;;21.00;99.90;;;;;;5044621;28;19996;-66
2023/05/30 10:30:06;;;;;;;;;;;21.30;99.90;;;;;;5043192;28;20008;-66
2023/05/30 10:32:34;;;;;;;;;;;21.30;99.90;;;;;;5044114;28;20228;-66
2023/05/30 10:35:04;;;;;;;;;;;21.40;99.90;;;;;;5045063;28;20282;-65
2023/05/30 10:37:33;;;;;;;;;;;21.50;99.90;;;;;;5044569;28;19928;-66
2023/05/30 10:40:06;;;;;;;;;;;21.60;99.90;;;;;;5044611;28;19989;-66
2023/05/30 10:42:37;;;;;;;;;;;21.70;99.90;;;;;;5044748;28;19928;-66
2023/05/30 10:45:10;;;;;;;;;;;21.80;99.90;;;;;;5044110;28;19944;-66
2023/05/30 10:47:43;;;;;;;;;;;21.90;99.90;;;;;;5044624;28;20208;-66
2023/05/30 10:50:14;;;;;;;;;;;22.00;99.90;;;;;;5044554;28;20267;-66
2023/05/30 10:52:42;;;;;;;;;;;22.10;99.90;;;;;;5044785;28;20156;-66
2023/05/30 10:55:10;;;;;;;;;;;22.20;99.90;;;;;;5044973;28;19921;-66
2023/05/30 10:57:37;;;;;;;;;;;22.30;99.90;;;;;;5044735;28;19921;-67
2023/05/30 11:00:16;;;;;;;;;;;22.30;99.90;;;;;;5042958;28;19921;-67
2023/05/30 11:02:43;;;;;;;;;;;22.40;99.90;;;;;;5044202;28;20116;-67
2023/05/30 11:05:11;;;;;;;;;;;22.40;99.90;;;;;;5044715;28;19921;-67
2023/05/30 11:07:38;;;;;;;;;;;22.60;99.90;;;;;;5044244;28;19996;-70
2023/05/30 11:10:06;;;;;;;;;;;22.50;99.90;;;;;;5039638;28;19926;-68
2023/05/30 11:12:33;;;;;;;;;;;22.60;99.90;;;;;;5044504;28;19975;-66
2023/05/30 11:15:00;;;;;;;;;;;22.60;99.90;;;;;;5034240;28;19929;-66
2023/05/30 11:17:31;;;;;;;;;;;22.60;99.90;;;;;;5041528;28;19929;-67
2023/05/30 11:20:07;;;;;;;;;;;22.60;99.40;;;;;;5044677;28;19976;-66
2023/05/30 11:22:33;;;;;;;;;;;22.50;98.20;;;;;;5044591;28;19922;-66
2023/05/30 11:25:15;;;;;;;;;;;22.40;98.50;;;;;;5044115;28;19935;-67
2023/05/30 11:27:56;;;;;;;;;;;22.40;99.50;;;;;;5043302;28;19957;-66
2023/05/30 11:30:24;;;;;;;;;;;22.50;98.20;;;;;;5043840;28;19975;-67
2023/05/30 11:32:53;;;;;;;;;;;22.80;99.00;;;;;;5043601;28;20235;-66
2023/05/30 11:35:20;;;;;;;;;;;22.90;98.00;;;;;;5044215;28;19969;-66
2023/05/30 11:37:46;;;;;;;;;;;23.00;97.20;;;;;;5044064;28;20124;-67
2023/05/30 11:40:15;;;;;;;;;;;23.30;96.50;;;;;;5044386;28;19963;-67
2023/05/30 11:42:42;;;;;;;;;;;23.40;97.10;;;;;;5043716;28;19921;-66
2023/05/30 11:45:09;;;;;;;;;;;23.30;95.90;;;;;;5043044;28;19921;-66
2023/05/30 11:47:43;;;;;;;;;;;23.30;95.80;;;;;;5042088;28;19925;-67
2023/05/30 11:50:10;;;;;;;;;;;23.30;96.30;;;;;;5042877;28;19921;-67
2023/05/30 11:52:37;;;;;;;;;;;23.40;97.00;;;;;;5043636;28;20150;-66
2023/05/30 11:55:04;;;;;;;;;;;23.60;96.00;;;;;;5043576;28;19921;-67
2023/05/30 11:57:31;;;;;;;;;;;23.60;94.80;;;;;;5042880;28;19921;-66
2023/05/30 11:59:58;;;;;;;;;;;23.80;95.30;;;;;;5043796;28;19921;-67
2023/05/30 12:02:27;;;;;;;;;;;23.90;94.80;;;;;;5043555;28;19985;-66
2023/05/30 12:05:01;;;;;;;;;;;24.00;94.30;;;;;;5043274;28;19921;-67
2023/05/30 12:07:27;;;;;;;;;;;24.10;93.60;;;;;;5043068;28;20226;-66
2023/05/30 12:09:54;;;;;;;;;;;24.30;94.00;;;;;;5043721;28;20104;-66
2023/05/30 12:12:21;;;;;;;;;;;24.30;93.50;;;;;;5035953;28;19988;-67
2023/05/30 12:15:02;;;;;;;;;;;24.40;94.20;;;;;;5040333;28;20384;-66
2023/05/30 12:17:29;;;;;;;;;;;24.30;94.00;;;;;;5042875;28;19937;-66
2023/05/30 12:19:56;;;;;;;;;;;24.30;92.70;;;;;;5043434;28;19964;-66
2023/05/30 12:22:24;;;;;;;;;;;24.50;91.90;;;;;;5043519;28;19980;-66
2023/05/30 12:24:52;;;;;;;;;;;24.20;92.40;;;;;;5042732;28;19992;-66
2023/05/30 12:27:19;;;;;;;;;;;24.10;93.50;;;;;;5043126;28;19921;-66
2023/05/30 12:29:45;;;;;;;;;;;24.20;91.90;;;;;;5043395;28;19929;-67
2023/05/30 12:32:12;;;;;;;;;;;24.10;93.30;;;;;;5041674;28;19953;-67
2023/05/30 12:34:40;;;;;;;;;;;24.30;91.70;;;;;;5042666;28;19921;-66
2023/05/30 12:37:07;;;;;;;;;;;24.40;91.20;;;;;;5042122;28;19921;-66
2023/05/30 12:39:35;;;;;;;;;;;24.40;91.20;;;;;;5043222;28;19937;-66
2023/05/30 12:42:07;;;;;;;;;;;24.30;91.60;;;;;;5042702;28;19921;-66
2023/05/30 12:44:44;;;;;;;;;;;24.30;90.80;;;;;;5041644;28;19925;-66
2023/05/30 12:47:11;;;;;;;;;;;24.20;90.40;;;;;;5040245;28;20112;-66
2023/05/30 12:49:37;;;;;;;;;;;24.20;90.20;;;;;;5042710;28;19984;-67
2023/05/30 12:52:05;;;;;;;;;;;24.50;90.70;;;;;;5042882;28;19963;-66
2023/05/30 12:54:35;;;;;;;;;;;24.80;91.00;;;;;;5042550;28;19963;-67
2023/05/30 12:57:02;;;;;;;;;;;24.80;88.00;;;;;;5042460;28;19921;-66
2023/05/30 12:59:28;;;;;;;;;;;24.70;88.00;;;;;;5042628;28;19928;-66
2023/05/30 13:01:55;;;;;;;;;;;24.80;87.80;;;;;;5042818;28;19984;-66
2023/05/30 13:04:22;;;;;;;;;;;24.80;86.40;;;;;;5042647;28;19956;-66
2023/05/30 13:06:48;;;;;;;;;;;25.10;86.80;;;;;;5041741;28;19980;-66
2023/05/30 13:09:16;;;;;;;;;;;25.30;88.70;;;;;;5042967;28;20007;-66
2023/05/30 13:11:44;;;;;;;;;;;25.30;86.30;;;;;;5037359;28;19956;-66
2023/05/30 13:14:11;;;;;;;;;;;25.40;85.40;;;;;;5035460;28;19922;-65
2023/05/30 13:16:37;;;;;;;;;;;25.40;88.90;;;;;;5042817;28;19956;-66
2023/05/30 13:19:04;;;;;;;;;;;25.30;86.20;;;;;;5042217;28;19989;-67
2023/05/30 13:21:31;;;;;;;;;;;25.30;83.50;;;;;;5041986;28;19940;-66
2023/05/30 13:23:57;;;;;;;;;;;25.50;84.80;;;;;;5042712;28;19927;-66
2023/05/30 13:26:25;;;;;;;;;;;25.70;84.50;;;;;;5041964;28;19987;-66
2023/05/30 13:28:53;;;;;;;;;;;25.90;81.90;;;;;;5042710;28;19928;-66
2023/05/30 13:31:20;;;;;;;;;;;26.00;81.10;;;;;;5042396;28;19984;-67
2023/05/30 13:33:46;;;;;;;;;;;26.00;81.70;;;;;;5042007;28;19956;-66
2023/05/30 13:36:13;;;;;;;;;;;25.80;78.20;;;;;;5041725;28;19968;-64
2023/05/30 13:38:42;;;;;;;;;;;25.80;81.20;;;;;;5042419;28;19989;-64
2023/05/30 13:41:10;;;;;;;;;;;26.10;78.50;;;;;;5042221;28;19967;-65
2023/05/30 13:43:37;;;;;;;;;;;25.90;78.90;;;;;;5041712;28;19959;-64
2023/05/30 13:46:05;;;;;;;;;;;26.00;80.50;;;;;;5038902;28;19921;-63
2023/05/30 13:48:32;;;;;;;;;;;25.90;78.00;;;;;;5041542;28;20231;-64
2023/05/30 13:50:59;;;;;;;;;;;26.00;81.20;;;;;;5042169;28;20187;-64
2023/05/30 13:53:25;;;;;;;;;;;26.20;78.50;;;;;;5042063;28;19992;-64
2023/05/30 13:55:52;;;;;;;;;;;26.30;75.60;;;;;;5043312;28;19956;-64
2023/05/30 13:58:19;;;;;;;;;;;26.20;74.50;;;;;;5041636;28;20303;-64
2023/05/30 14:00:45;;;;;;;;;;;26.30;73.70;;;;;;5041427;28;19957;-64
2023/05/30 14:03:13;;;;;;;;;;;26.50;72.90;;;;;;5024078;28;19977;-64
2023/05/30 14:05:40;;;;;;;;;;;26.40;71.30;;;;;;5041312;28;19925;-64
2023/05/30 14:08:06;;;;;;;;;;;26.70;71.80;;;;;;5045355;28;19921;-64
2023/05/30 14:10:33;;;;;;;;;;;26.80;72.70;;;;;;5044845;28;19984;-64
2023/05/30 14:13:00;;;;;;;;;;;26.60;71.70;;;;;;5045026;28;20172;-64
2023/05/30 14:15:28;;;;;;;;;;;26.80;70.20;;;;;;5045161;28;19963;-64
2023/05/30 14:17:56;;;;;;;;;;;26.80;70.30;;;;;;5044684;28;19956;-64
2023/05/30 14:20:24;;;;;;;;;;;26.70;71.80;;;;;;5042527;28;19943;-64
2023/05/30 14:22:51;;;;;;;;;;;26.80;71.60;;;;;;5035448;28;20012;-64
2023/05/30 14:25:18;;;;;;;;;;;27.00;70.30;;;;;;5045005;28;20192;-64
2023/05/30 14:27:45;;;;;;;;;;;27.20;67.00;;;;;;5044465;28;19920;-64
2023/05/30 14:30:17;;;;;;;;;;;27.20;66.50;;;;;;5046162;28;20183;-64
2023/05/30 14:32:46;;;;;;;;;;;27.00;66.20;;;;;;5036711;28;20958;-64